Domov               UVHVVR             MKGP            O straneh              
ZDRAVSTVENO VARSTVO RASTLIN
  MREŽA AGROMET. POSTAJ
 ► PROGNOSTIČNA OBVESTILA
AGROMETEOROLOŠKI PODATKI -
ARSO
OBVLADOVANJE TVEGANJ ZARADI
NEUGODNIH VREMENSKIH RAZMER
  ► NARAVNE NESREČE
  ► SUŠA/MOČA
  ► NAMAKANJE
  ► ŽLED (gozdarstvo)
KARTOGRAFSKI PRIKAZI
SPLETNE POVEZAVE
PROJEKTI IN PUBLIKACIJE

AGROMETEOROLOŠKA MREŽA: VREMENSKE POSTAJE IN FENOLOŠKA OPAZOVANJA

Pregled podatkov za lokacijo Brdo pri Lukovici, meteorološka postaja 61681

Pregled senzorjev na lokaciji

ID Ime Zadnja
vrednost
Datum in čas
zadnje
spremembe
(Lokalni čas)
Tip
senzorja
4996 Sončno sevanje (W/m2) 119.11 W/m2 8.12.2019 13:30 SP-Lite 2000 W/m²
4262 Omočenost lista (U) 10 U 8.12.2019 13:30 A730WET
4251 Padavine (mm) 0 mm 8.12.2019 13:30 Generic 0.2 mm
4246 Relativna vlaga 2 m (% RH) 90.86 % RH 8.12.2019 13:30 Generic 0 - 100 %
4263 Temperatura tal 5 cm (°C) 2.98 °C 8.12.2019 13:30 Generic -20 - +40 °C
4245 Temperatura 2 m (°C) 3.55 °C 8.12.2019 13:30 Generic -40 - +60 °C
4264 Smer vetra (°) 78.79 ° 8.12.2019 13:30 Generic 0 - 360
4265 Hitrost vetra (km/h) 0.23 km/h 8.12.2019 13:30 Generic 200 km/h

Pregled podatkov zadnjih 24 ur

Zap.
št.
Datum in čas
(Centralno
evropski čas)
Brdo pri Lukovici
Sončno
sevanje
Omočenost
lista
Padavine Relativna
vlaga
2
m
Temperatura
tal
5
cm
Temperatura
2
m
Smer
vetra
Hitrost
vetra
1 8.12.2019 14:00
2 8.12.2019 13:30 119.1 10 0 90.9 3 3.6 78.8 0.2
3 8.12.2019 13:00 178.1 10 0 89.4 2.7 3.5 164.9 0.4
4 8.12.2019 12:30 136.5 10 0 92.1 2.5 2.6 141.3 1.9
5 8.12.2019 12:00 148.3 10 0 92.1 2.3 2.3 183.7 2.1
6 8.12.2019 11:30 199.4 1 0 90.1 2.1 2.3 163 2.1
7 8.12.2019 11:00 259.8 8 0 97.5 2.1 1.6 144.2 2.6
8 8.12.2019 10:30 219.5 9 0 100 2.1 0.2 128.7 0.2
9 8.12.2019 10:00 57.7 1 0 100 2.1 -0.9 124.1 0
10 8.12.2019 09:30 50.3 1 0 100 2.1 -1.1 123.4 0.4
11 8.12.2019 09:00 27.8 1 0 100 2.1 -1.2 63.6 0
12 8.12.2019 08:30 22.6 1 0 100 2.1 -1.6 48.9 0
13 8.12.2019 08:00 10 1 0 100 2.1 -1.9 23.7 0
14 8.12.2019 07:30 1.9 1 0 100 2.1 -2.3 37.7 0
15 8.12.2019 07:00 0.5 1 0 100 2.1 -2.7 16.7 0
16 8.12.2019 06:30 0.5 1 0 100 2.2 -2.7 11.7 0
17 8.12.2019 06:00 0.5 1 0 100 2.2 -2.4 4.9 0
18 8.12.2019 05:30 0.5 1 0 100 2.2 -2.3 24.1 0
19 8.12.2019 05:00 0.6 1 0 100 2.3 -1.9 10.6 0
20 8.12.2019 04:30 0.5 1 0 100 2.3 -1.3 357.7 0
21 8.12.2019 04:00 0.5 1 0 100 2.3 -1.1 65.5 0
22 8.12.2019 03:30 0.6 1 0 100 2.3 -1.1 11.4 0
23 8.12.2019 03:00 0.5 1 0 100 2.4 -1.5 77.4 0
24 8.12.2019 02:30 0.5 1 0 100 2.4 -1.4 27.1 0
25 8.12.2019 02:00 0.5 1 0 100 2.4 -1 354.2 0
26 8.12.2019 01:30 0.5 1 0 100 2.5 -1.1 14.9 0.2
27 8.12.2019 01:00 0.6 1 0 100 2.5 -1.3 354.5 2.8
28 8.12.2019 00:30 0.5 2 0 100 2.6 -1.1 356 2.3
29 8.12.2019 00:00 0.5 2 0 100 2.7 -1 354.7 2.3
30 7.12.2019 23:30 0.5 10 0 100 2.7 -1 348.6 2.3
31 7.12.2019 23:00 0.5 10 0 100 2.8 -0.8 347.7 2
32 7.12.2019 22:30 0.5 10 0 100 2.9 -0.5 9.7 3.2
33 7.12.2019 22:00 0.5 10 0 100 3 -0.5 7.4 1.5
34 7.12.2019 21:30 0.5 10 0 100 3 -0.5 352.9 1.8
35 7.12.2019 21:00 0.5 10 0 100 3.1 -0.6 353.3 2.5
36 7.12.2019 20:30 0.5 10 0 100 3.3 -0.3 355.1 0.8
37 7.12.2019 20:00 0.5 10 0 99.9 3.4 0.1 354.7 2
38 7.12.2019 19:30 0.6 10 0 99 3.5 0.4 343.1 0.5
39 7.12.2019 19:00 0.5 10 0 98.6 3.7 1.2 23.9 2
40 7.12.2019 18:30 0.5 9 0 97.5 3.9 1.7 355.5 3.6
41 7.12.2019 18:00 0.5 6 0 96.1 4 2.1 360 1.2
42 7.12.2019 17:30 0.5 4 0 94.8 4.2 2.6 16.1 2.5
43 7.12.2019 17:00 0.9 3 0 91.5 4.3 3.4 350.7 1.6
44 7.12.2019 16:30 7.8 0 0 87.5 4.4 4.4 1.8 0
45 7.12.2019 16:00 29.3 0 0 80.1 4.5 6.4 348.6 0
46 7.12.2019 15:30 68.3 0 0 68.8 4.5 8.9 186.4 0
47 7.12.2019 15:00 79.5 0 0 67.4 4.3 8.8 166.1 0
48 7.12.2019 14:30 147.1 0 0 64.9 4.1 9.1 171.7 2.6
© 2011 Ministrstvo za kmetijstvo, gozdarstvo in prehrano. Vse pravice pridržane.